Weather reports worldwide

Advertisment
Puerto Leitariegos, Spain (8052): temperature & dewpoint: 08.10.2019 14:00:00 - 14.10.2019 14:00:00 (CEST)Puerto Leitariegos, Spain (8052): wind speed & gusts: 08.10.2019 14:00:00 - 14.10.2019 14:00:00 (CEST)Puerto Leitariegos, Spain (8052): wind direction: 08.10.2019 14:00:00 - 14.10.2019 14:00:00 (CEST)Puerto Leitariegos, Spain (8052): visibility: 08.10.2019 14:00:00 - 14.10.2019 14:00:00 (CEST)Puerto Leitariegos, Spain (8052): sunshine duration: 08.10.2019 14:00:00 - 14.10.2019 14:00:00 (CEST)Puerto Leitariegos, Spain (8052): precipitation: 08.10.2019 14:00:00 - 14.10.2019 14:00:00 (CEST)
Date & Time tt [°C] td [°C] ff [km/h] ff [kn] fx [km/h] fx [kn] dd vv [km] sd [min] rr [mm]
14.10.2019 14:00:00 - - - - - - - - - -
14.10.2019 13:00:00 - - - - - - - - - -
14.10.2019 12:00:00 4,5 3,0 18 10 35 19 SE 11 0 1,0
14.10.2019 11:00:00 - - - - - - - - - -
14.10.2019 10:00:00 4,2 2,3 19 11 37 20 SSE 20 0 0,0
14.10.2019 09:00:00 3,8 2,7 16 9 35 19 SE 20 0 0,2
14.10.2019 08:00:00 - - - - - - - - - -
14.10.2019 07:00:00 5,1 3,2 18 10 45 24 ESE 20 0 1,0
14.10.2019 06:00:00 5,1 4,1 15 8 32 18 NNW 20 0 0,2
14.10.2019 05:00:00 5,8 4,5 11 6 29 16 NW 3,5 0 0,2
14.10.2019 04:00:00 9,0 6,4 16 9 46 25 SW 0,6 0 0,4
14.10.2019 03:00:00 9,7 5,6 23 12 46 25 SSE 20 0 0,2
14.10.2019 02:00:00 9,4 6,7 16 9 42 23 SSE 20 0 -
14.10.2019 01:00:00 10,0 6,4 23 12 42 23 SSE 20 0 0,2
14.10.2019 00:00:00 10,2 5,9 17 9 46 25 SSE 20 0 0,0
13.10.2019 23:00:00 - - - - - - - - - -
13.10.2019 22:00:00 10,7 6,7 19 10 39 21 SSE 20 0 0,0
13.10.2019 21:00:00 10,8 7,7 18 10 38 20 SSE 20 0 0,0
13.10.2019 20:00:00 11,0 7,8 17 9 41 22 SE 20 0 -
13.10.2019 19:00:00 11,2 8,3 12 6 48 26 SSE 20 0 0,0
13.10.2019 18:00:00 10,8 9,2 17 9 34 18 SE 20 0 0,0
13.10.2019 17:00:00 - - - - - - - - - -
13.10.2019 16:00:00 10,3 9,0 19 10 34 18 SE 15 0 0,4
13.10.2019 15:00:00 10,6 9,3 18 10 37 20 SE 9 0 0,8
13.10.2019 14:00:00 - - - - - - - - - -
13.10.2019 13:00:00 10,1 8,9 13 7 36 19 SE 7 0 0,6
13.10.2019 12:00:00 9,5 8,4 13 7 31 17 SE 4,9 0 0,6
13.10.2019 11:00:00 - - - - - - - - - -
13.10.2019 10:00:00 8,3 6,7 19 10 - - SE 17 0 0,0
13.10.2019 09:00:00 8,3 6,4 - - - - - 5 0 0,2
13.10.2019 08:00:00 - - - - - - - - - -
13.10.2019 07:00:00 8,6 5,5 21 11 43 23 ESE 20 0 0,0
13.10.2019 06:00:00 8,7 5,0 18 10 37 20 SE 20 0 0,0
13.10.2019 05:00:00 9,3 5,0 18 10 45 24 SE 20 0 0,0
13.10.2019 04:00:00 9,4 4,8 10 5 29 16 SE 20 0 0,0
13.10.2019 03:00:00 9,6 6,7 19 10 40 22 SE 20 0 0,0
13.10.2019 02:00:00 10,1 7,3 23 13 59 32 SE 20 0 -
13.10.2019 01:00:00 - - - - - - - - - -
13.10.2019 00:00:00 12,4 8,5 19 10 48 26 S 20 0 0,0
12.10.2019 23:00:00 13,3 8,5 24 13 56 30 SSE 20 0 0,0
12.10.2019 22:00:00 - - - - - - - - - -
12.10.2019 21:00:00 15,2 7,3 16 8 54 29 SSE 20 0 0,0
12.10.2019 20:00:00 15,9 6,5 31 17 88 48 SSE 20 0 -
12.10.2019 19:00:00 16,2 6,4 30 16 84 45 SE 20 0 0,0
12.10.2019 18:00:00 16,6 5,5 36 19 86 46 SE 20 45 0,0
12.10.2019 17:00:00 17,5 5,8 31 17 85 46 SE 20 59 0,0
12.10.2019 16:00:00 18,0 5,9 21 11 61 33 SSE 20 60 0,0
12.10.2019 15:00:00 - - - - - - - - - -
12.10.2019 14:00:00 17,1 6,5 29 15 61 33 SE 20 53 -
12.10.2019 13:00:00 16,3 6,4 24 13 77 41 SE 20 58 0,0
12.10.2019 12:00:00 15,9 5,8 28 15 61 33 SSE 20 60 0,0
12.10.2019 11:00:00 - - - - - - - - - -
12.10.2019 10:00:00 13,4 4,5 24 13 74 40 ESE 20 42 0,0
12.10.2019 09:00:00 12,0 3,9 27 15 61 33 ESE 20 0 0,0
12.10.2019 08:00:00 - - - - - - - - - -
12.10.2019 07:00:00 11,4 7,0 14 8 40 21 ESE 20 0 0,0
12.10.2019 06:00:00 12,5 7,0 19 10 55 30 SE 20 0 0,0
12.10.2019 05:00:00 - - - - - - - - - -
12.10.2019 04:00:00 13,5 7,0 29 16 57 31 SE 20 0 0,0
12.10.2019 03:00:00 12,6 7,7 14 8 41 22 ESE 20 0 0,0
12.10.2019 02:00:00 - - - - - - - - - -
12.10.2019 01:00:00 12,5 7,8 10 6 18 10 ESE 20 0 0,0
12.10.2019 00:00:00 12,8 7,7 6 3 16 9 SSE 20 0 0,0
11.10.2019 23:00:00 13,1 7,3 6 3 12 6 SE 20 0 0,0
11.10.2019 22:00:00 - - - - - - - - - -
11.10.2019 21:00:00 14,0 7,6 7 4 28 15 SE 20 0 0,0
11.10.2019 20:00:00 15,5 7,3 5 3 34 19 S 20 0 -
11.10.2019 19:00:00 16,8 7,4 13 7 53 29 SE 20 0 0,0
11.10.2019 18:00:00 17,4 6,5 24 13 67 36 SE 20 50 0,0
11.10.2019 17:00:00 18,0 7,1 32 17 67 36 SE 20 60 0,0
11.10.2019 16:00:00 18,1 6,8 33 18 74 40 SE 20 60 0,0
11.10.2019 15:00:00 17,9 6,7 27 15 65 35 SE 20 60 0,0
11.10.2019 14:00:00 17,7 7,1 24 13 49 26 SE 18 60 -
11.10.2019 13:00:00 17,3 2,1 18 10 49 27 SE 20 60 0,0
11.10.2019 12:00:00 16,4 3,0 20 11 40 21 SE 20 60 0,0
11.10.2019 11:00:00 - - - - - - - - - -
11.10.2019 10:00:00 13,3 5,0 11 6 23 12 E 20 43 0,0
11.10.2019 09:00:00 - - - - - - - - - -
11.10.2019 08:00:00 10,1 3,6 14 7 29 16 SE 20 0 -
11.10.2019 07:00:00 10,9 3,6 16 9 29 15 SE 20 0 0,0
11.10.2019 06:00:00 11,4 3,6 16 9 29 16 E 20 0 0,0
11.10.2019 05:00:00 9,2 2,7 14 7 20 11 SE 20 0 0,0
11.10.2019 04:00:00 8,4 2,5 8 4 11 6 SE 20 0 0,0
11.10.2019 03:00:00 8,2 2,5 8 4 13 7 SE 20 0 0,0
11.10.2019 02:00:00 8,4 2,7 7 4 17 9 SE 20 0 -
11.10.2019 01:00:00 8,7 2,7 9 5 19 10 SE 20 0 0,0
11.10.2019 00:00:00 - - - - - - - - - -
10.10.2019 23:00:00 9,8 3,0 8 5 18 10 SSE 20 0 0,0
10.10.2019 22:00:00 10,7 3,8 12 6 20 11 S 20 0 0,0
10.10.2019 21:00:00 11,7 3,2 8 4 17 9 SE 20 0 0,0
10.10.2019 20:00:00 13,0 3,4 7 4 18 10 S 20 0 -
10.10.2019 19:00:00 11,2 7,0 10 5 16 9 NW 20 0 0,0
10.10.2019 18:00:00 14,0 7,1 9 5 14 8 WNW 20 53 0,0
10.10.2019 17:00:00 - - - - - - - - - -
10.10.2019 16:00:00 - - - - - - - - - -
10.10.2019 15:00:00 - - - - - - - - - -
10.10.2019 14:00:00 - - - - - - - - - -
10.10.2019 13:00:00 - - - - - - - - - -
10.10.2019 12:00:00 13,7 2,9 10 6 16 8 SE 20 60 0,0
10.10.2019 11:00:00 - - - - - - - - - -
10.10.2019 10:00:00 8,9 0,9 - - - - - 20 44 0,0
10.10.2019 09:00:00 6,8 -2,0 11 6 17 9 NNW 20 0 0,0
10.10.2019 08:00:00 6,9 0,2 7 4 10 6 NNW 20 0 -
10.10.2019 07:00:00 6,4 -1,7 6 3 16 9 NNW 20 0 0,0
10.10.2019 06:00:00 - - - - - - - - - -
10.10.2019 05:00:00 5,4 -4,8 10 5 14 8 NW 20 0 0,0
10.10.2019 04:00:00 3,9 -3,9 2 1 5 3 N 20 0 0,0
10.10.2019 03:00:00 - - - - - - - - - -
10.10.2019 02:00:00 3,8 -1,0 1 1 14 8 N 20 0 -
10.10.2019 01:00:00 3,5 1,3 9 5 16 8 NNW 20 0 0,0
10.10.2019 00:00:00 - - - - - - - - - -
09.10.2019 23:00:00 4,1 1,1 1 1 18 10 SE 20 0 0,0
09.10.2019 22:00:00 4,5 2,9 12 6 16 9 NW 20 0 0,0
09.10.2019 21:00:00 4,9 2,9 10 5 25 13 NW 20 0 0,0
09.10.2019 20:00:00 - - - - - - - - - -
09.10.2019 19:00:00 7,1 3,2 14 8 23 12 WNW 20 0 0,0
09.10.2019 18:00:00 8,2 3,0 16 9 26 14 WNW 20 55 0,0
09.10.2019 17:00:00 9,8 3,2 15 8 27 15 WNW 20 60 0,0
09.10.2019 16:00:00 9,9 4,5 16 8 24 13 WNW 20 60 0,0
09.10.2019 15:00:00 9,7 3,6 12 6 30 16 WNW 20 60 0,0
09.10.2019 14:00:00 - - - - - - - - - -
09.10.2019 13:00:00 7,8 4,6 8 4 20 11 NW - 60 0,0
09.10.2019 12:00:00 6,7 4,3 11 6 30 16 NW 20 36 0,0
09.10.2019 11:00:00 - - - - - - - - - -
09.10.2019 10:00:00 4,2 3,2 22 12 34 19 NW 20 6 0,0
09.10.2019 09:00:00 3,4 2,7 13 7 34 18 NW 20 0 0,0
09.10.2019 08:00:00 4,0 3,0 24 13 36 19 NW 20 0 -
09.10.2019 07:00:00 2,5 1,7 13 7 17 9 NW 20 0 0,0
09.10.2019 06:00:00 - - - - - - - - - -
09.10.2019 05:00:00 4,6 4,0 16 9 29 16 NNW - 0 0,0
09.10.2019 04:00:00 - - - - - - - - - -
09.10.2019 03:00:00 6,3 5,8 13 7 19 11 NNW 0,2 0 0,0
09.10.2019 02:00:00 6,7 6,1 8 4 25 14 NW 0,2 0 -
09.10.2019 01:00:00 - - - - - - - - - -
09.10.2019 00:00:00 7,6 7,0 12 6 24 13 NW 0,3 0 0,0
08.10.2019 23:00:00 - - - - - - - - - -
08.10.2019 22:00:00 8,1 7,6 18 10 24 13 NW 0,5 0 0,0
08.10.2019 21:00:00 - - - - - - - - - -
08.10.2019 20:00:00 11,3 10,4 13 7 27 15 NNW 2,0 0 -
08.10.2019 19:00:00 10,4 9,7 13 7 24 13 NW 0,4 0 0,0
08.10.2019 18:00:00 - - - - - - - - - -
08.10.2019 17:00:00 14,3 12,6 11 6 21 12 NW 2,6 4 0,0
08.10.2019 16:00:00 15,7 13,2 12 7 24 13 NNW 20 10 0,0
08.10.2019 15:00:00 15,7 12,4 13 7 26 14 NNW 20 2 0,0
08.10.2019 14:00:00 16,0 12,0 13 7 28 15 NNW 20 0 -

tt = temperature
td = dewpoint
ff = wind speed
fx = gusts
dd = wind direction
vv = visibility
sd = sunshine duration
rr = precipitation

Next stations